Search for airport 
image banner adimage banner ad
image banner ad

DAAE - Bejaia / Soummam-Abane Ramdane

Located in Bejaia, Algeria

ICAO - DAAE, IATA - BJA

Data provided by Airmate  

General information

Coordinates: N36°42'43" E5°4'10"
Elevation is 19 feet MSL.
 
Rated:
View ratings: [VIEW]


View others Airports in Béjaïa Province

Operational data

Open for public use
Current time UTC:
Current local time:
Weather
METAR: DAAE 122300Z 23006KT 8000 NSC 28/21 Q1011
TAF: TAF DAAE 122300Z 1300/1324 16008KT 8000 FEW020 BECMG 1306/1308 35008KT BECMG 1315/1317 16014KT
View NOTAMs / SUP AIP / TFR affecting this airport [VIEW]
Communications frequencies: [VIEW]

Runways:

RWY identifierQFULength (ft)Width (ft)SurfaceLDA (ft)
0882°7874148ASP
26262°7874148

Airport contact information

Address: Bejaia Algeria

Satellite view of DAAE